Time;durP1;ratioP1;P1;durP2;ratioP2;P2;SDS_P1;SDS_P2;PMS_P1;PMS_P2;Temp;Humidity;BMP_temperature;BMP_pressure;BME280_temperature;BME280_humidity;BME280_pressure;Samples;Min_cycle;Max_cycle;Signal;HPM_P1;HPM_P2
2022/08/16 00:00:13;;;;;;;;;35.75;33.50;;;;;23.52;43.17;100258.56;5081859;28;45369;-58
2022/08/16 00:02:39;;;;;;;;;36.50;32.50;;;;;23.49;43.17;100265.97;5074449;28;45260;-57
2022/08/16 00:05:08;;;;;;;;;35.50;33.00;;;;;23.45;43.39;100264.50;5061810;28;45390;-58
2022/08/16 00:07:33;;;;;;;;;34.75;33.00;;;;;23.39;43.51;100260.44;5061966;28;46715;-57
2022/08/16 00:09:59;;;;;;;;;37.75;34.00;;;;;23.39;43.46;100264.97;5061700;28;45276;-58
2022/08/16 00:12:27;;;;;;;;;31.50;29.00;;;;;23.32;43.62;100267.22;5061568;28;45432;-57
2022/08/16 00:14:53;;;;;;;;;38.50;31.75;;;;;23.31;43.76;100273.59;5060166;28;45364;-57
2022/08/16 00:17:19;;;;;;;;;35.50;33.00;;;;;23.27;43.56;100272.97;5061298;28;46208;-58
2022/08/16 00:19:44;;;;;;;;;30.50;29.75;;;;;23.13;44.00;100273.09;5061485;28;45307;-57
2022/08/16 00:22:10;;;;;;;;;34.25;32.50;;;;;23.10;44.46;100276.84;5061680;28;45367;-57
2022/08/16 00:24:35;;;;;;;;;34.25;31.50;;;;;23.13;44.15;100275.78;5061343;28;45354;-57
2022/08/16 00:27:02;;;;;;;;;33.50;30.50;;;;;23.10;44.20;100276.00;5061206;28;46122;-57
2022/08/16 00:29:29;;;;;;;;;33.75;30.75;;;;;23.08;44.30;100283.28;5061383;28;45468;-57
2022/08/16 00:31:54;;;;;;;;;39.75;33.25;;;;;23.02;44.57;100285.47;5061554;28;45331;-57
2022/08/16 00:34:21;;;;;;;;;36.50;31.25;;;;;23.00;44.34;100281.19;5061285;28;45390;-57
2022/08/16 00:36:48;;;;;;;;;36.75;32.25;;;;;22.98;44.39;100280.44;5061233;28;45343;-56
2022/08/16 00:39:16;;;;;;;;;35.25;32.25;;;;;22.98;44.64;100281.31;5061386;28;45418;-55
2022/08/16 00:41:43;;;;;;;;;36.25;32.75;;;;;22.98;44.60;100281.31;5061110;28;45299;-54
2022/08/16 00:44:10;;;;;;;;;32.25;30.25;;;;;22.96;44.65;100275.19;5061218;28;45379;-52
2022/08/16 00:46:41;;;;;;;;;36.00;32.75;;;;;22.96;44.66;100280.56;5059838;28;46093;-54
2022/08/16 00:49:10;;;;;;;;;36.25;32.75;;;;;22.95;44.74;100270.81;5061090;28;45478;-54
2022/08/16 00:51:36;;;;;;;;;35.75;33.25;;;;;22.95;44.44;100276.16;5070682;28;45497;-54
2022/08/16 00:54:02;;;;;;;;;33.75;32.25;;;;;22.94;44.70;100266.41;5081235;28;45482;-53
2022/08/16 00:56:31;;;;;;;;;34.50;32.25;;;;;22.96;44.88;100261.81;5080896;28;45368;-52
2022/08/16 00:58:56;;;;;;;;;37.50;33.50;;;;;22.94;44.66;100261.06;5079790;28;45322;-54
2022/08/16 01:01:22;;;;;;;;;43.75;34.00;;;;;22.94;44.37;100257.53;5081111;28;45186;-53
2022/08/16 01:03:51;;;;;;;;;35.50;31.50;;;;;22.95;44.68;100262.78;5064813;27;45478;-53
2022/08/16 01:06:18;;;;;;;;;37.50;33.00;;;;;22.93;44.79;100258.50;5060820;28;46278;-54
2022/08/16 01:08:47;;;;;;;;;36.50;32.25;;;;;22.94;44.79;100258.38;5060784;28;45295;-56
2022/08/16 01:11:13;;;;;;;;;34.50;32.25;;;;;22.91;44.69;100253.25;5060917;28;45384;-57
2022/08/16 01:13:39;;;;;;;;;37.75;33.25;;;;;22.94;44.64;100252.16;5073162;28;45507;-57
2022/08/16 01:16:26;;;;;;;;;35.00;32.75;;;;;22.88;44.50;100246.31;5060627;28;46201;-57
2022/08/16 01:19:13;;;;;;;;;36.75;32.75;;;;;22.94;44.67;100250.34;5060578;28;45471;-57
2022/08/16 01:21:59;;;;;;;;;37.25;33.75;;;;;22.96;44.91;100251.09;5060723;28;45428;-57
2022/08/16 01:24:38;;;;;;;;;33.00;30.75;;;;;22.95;45.11;100252.06;5060801;28;45304;-57
2022/08/16 01:27:12;;;;;;;;;37.00;34.00;;;;;22.96;44.95;100259.13;5060327;28;46272;-57
2022/08/16 01:29:53;;;;;;;;;42.50;34.00;;;;;22.98;45.03;100265.22;5060601;28;46630;-57
2022/08/16 01:32:18;;;;;;;;;40.00;33.50;;;;;22.98;44.91;100259.88;5060530;28;45303;-57
2022/08/16 01:34:45;;;;;;;;;39.75;34.25;;;;;22.95;44.84;100252.06;5060402;28;45255;-57
2022/08/16 01:37:12;;;;;;;;;38.00;33.00;;;;;22.99;44.74;100253.56;5059573;28;45293;-57
2022/08/16 01:39:38;;;;;;;;;34.75;32.25;;;;;23.00;45.13;100257.91;5060432;28;45346;-57
2022/08/16 01:42:06;;;;;;;;;36.75;33.25;;;;;22.99;44.82;100256.25;5060192;28;45248;-57
2022/08/16 01:44:32;;;;;;;;;36.75;34.00;;;;;22.99;44.74;100253.56;5060166;28;45387;-57
2022/08/16 01:46:57;;;;;;;;;32.00;29.25;;;;;22.96;44.68;100253.75;5060161;28;45362;-57
2022/08/16 01:49:27;;;;;;;;;44.00;35.25;;;;;22.97;44.84;100252.81;5060086;28;45272;-57
2022/08/16 01:52:03;;;;;;;;;35.25;33.00;;;;;22.98;44.91;100250.97;5072646;28;45339;-57
2022/08/16 01:54:29;;;;;;;;;38.00;34.25;;;;;22.98;44.59;100251.84;5080210;28;45284;-57
2022/08/16 01:56:56;;;;;;;;;40.50;34.00;;;;;22.98;44.92;100254.53;5079932;28;47043;-57
2022/08/16 01:59:22;;;;;;;;;38.25;31.75;;;;;22.98;45.04;100257.19;5080341;28;45469;-57
2022/08/16 02:01:49;;;;;;;;;38.75;33.00;;;;;22.99;45.03;100263.41;5080189;28;45407;-57
2022/08/16 02:04:16;;;;;;;;;35.75;32.25;;;;;22.97;44.85;100263.53;5060115;28;45505;-57
2022/08/16 02:06:42;;;;;;;;;34.50;32.00;;;;;22.97;45.06;100260.00;5059969;28;46136;-57
2022/08/16 02:09:09;;;;;;;;;36.75;33.00;;;;;22.94;45.23;100255.69;5060052;28;45310;-57
2022/08/16 02:11:35;;;;;;;;;35.75;32.75;;;;;22.97;45.19;100252.81;5059749;28;45497;-57
2022/08/16 02:14:00;;;;;;;;;40.25;35.00;;;;;22.98;45.13;100250.97;5059936;28;45518;-57
2022/08/16 02:16:26;;;;;;;;;38.25;33.25;;;;;22.97;45.19;100255.47;5059767;28;46331;-57
2022/08/16 02:18:52;;;;;;;;;36.25;32.25;;;;;22.98;45.30;100250.97;5066440;28;45384;-57
2022/08/16 02:21:18;;;;;;;;;39.25;33.75;;;;;22.97;44.94;100246.59;5080196;28;45342;-57
2022/08/16 02:23:44;;;;;;;;;37.25;32.75;;;;;22.92;45.16;100236.22;5080099;28;45467;-57
2022/08/16 02:26:09;;;;;;;;;39.75;34.50;;;;;23.00;45.13;100252.56;5065207;28;46336;-57
2022/08/16 02:28:36;;;;;;;;;35.00;31.50;;;;;22.99;45.14;100253.56;5079701;28;45233;-57
2022/08/16 02:31:06;;;;;;;;;41.50;34.00;;;;;22.99;45.14;100248.19;5079966;28;45189;-57
2022/08/16 02:33:32;;;;;;;;;40.50;34.25;;;;;22.95;45.37;100244.00;5079992;28;45394;-57
2022/08/16 02:35:58;;;;;;;;;38.25;33.50;;;;;22.97;45.34;100233.22;5079754;28;45344;-57
2022/08/16 02:38:24;;;;;;;;;36.50;32.75;;;;;22.97;45.22;100226.00;5079931;28;45338;-57
2022/08/16 02:40:50;;;;;;;;;38.25;34.50;;;;;22.97;45.38;100217.97;5079368;27;45379;-57
2022/08/16 02:43:15;;;;;;;;;36.50;32.50;;;;;22.95;45.42;100213.69;5079701;28;45238;-57
2022/08/16 02:45:41;;;;;;;;;36.25;33.00;;;;;22.97;45.28;100209.09;5079694;28;46180;-57
2022/08/16 02:48:07;;;;;;;;;35.25;31.75;;;;;22.95;45.27;100203.84;5079782;28;45193;-57
2022/08/16 02:50:33;;;;;;;;;34.50;31.50;;;;;22.89;45.40;100198.94;5074210;28;45363;-57
2022/08/16 02:52:59;;;;;;;;;32.00;31.25;;;;;22.96;45.51;100202.88;5083324;28;45751;-57
2022/08/16 02:55:25;;;;;;;;;37.00;33.25;;;;;22.93;45.55;100192.41;5082572;28;45486;-57
2022/08/16 02:57:50;;;;;;;;;35.50;32.50;;;;;22.93;45.50;100196.88;5082865;28;45275;-57
2022/08/16 03:00:17;;;;;;;;;35.50;33.25;;;;;22.94;45.45;100186.03;5082937;28;45444;-57
2022/08/16 03:02:44;;;;;;;;;33.50;31.00;;;;;22.90;45.52;100187.25;5074661;28;45321;-57
2022/08/16 03:05:11;;;;;;;;;35.00;32.75;;;;;22.92;45.68;100193.34;5062570;28;46108;-57
2022/08/16 03:07:36;;;;;;;;;34.50;32.50;;;;;22.91;45.67;100202.34;5062725;28;45260;-57
2022/08/16 03:10:04;;;;;;;;;37.50;32.00;;;;;22.91;45.54;100197.00;5062817;28;45214;-57
2022/08/16 03:12:30;;;;;;;;;35.50;31.75;;;;;22.85;45.81;100192.09;5062373;28;45537;-57
2022/08/16 03:14:55;;;;;;;;;33.75;32.00;;;;;22.84;45.46;100191.25;5062507;28;45419;-57
2022/08/16 03:17:20;;;;;;;;;33.75;31.00;;;;;22.87;45.86;100192.84;5066041;28;45327;-57
2022/08/16 03:19:46;;;;;;;;;34.50;30.75;;;;;22.85;45.75;100197.47;5062614;28;45280;-57
2022/08/16 03:22:12;;;;;;;;;42.25;33.50;;;;;22.83;45.72;100189.53;5062466;28;45208;-57
2022/08/16 03:24:38;;;;;;;;;37.00;32.50;;;;;22.81;45.55;100187.94;5062195;28;46205;-58
2022/08/16 03:27:03;;;;;;;;;33.50;31.25;;;;;22.80;45.55;100204.97;5062283;28;45257;-58
2022/08/16 03:29:32;;;;;;;;;38.75;32.50;;;;;22.79;45.64;100205.94;5062485;28;45282;-57
2022/08/16 03:31:58;;;;;;;;;37.50;32.50;;;;;22.75;45.52;100199.97;5062278;28;45528;-57
2022/08/16 03:34:24;;;;;;;;;36.50;33.50;;;;;22.76;45.92;100206.19;5062229;28;46227;-57
2022/08/16 03:36:49;;;;;;;;;38.00;32.25;;;;;22.73;45.68;100205.44;5062165;28;45321;-57
2022/08/16 03:39:14;;;;;;;;;38.50;32.75;;;;;22.66;45.75;100197.97;5062378;28;45284;-57
2022/08/16 03:41:40;;;;;;;;;36.50;33.00;;;;;22.72;45.71;100202.88;5061923;28;45324;-57
2022/08/16 03:44:06;;;;;;;;;32.75;30.50;;;;;22.70;45.90;100216.38;5061959;28;46198;-57
2022/08/16 03:46:33;;;;;;;;;36.50;32.50;;;;;22.69;45.85;100225.38;5061996;28;45349;-57
2022/08/16 03:48:58;;;;;;;;;34.25;32.00;;;;;22.63;45.88;100215.13;5062117;28;45261;-57
2022/08/16 03:51:24;;;;;;;;;34.25;32.00;;;;;22.62;45.78;100225.94;5069933;28;45259;-57
2022/08/16 03:53:49;;;;;;;;;32.75;30.25;;;;;22.60;46.12;100226.03;5082297;28;45930;-57
2022/08/16 03:56:14;;;;;;;;;35.00;32.75;;;;;22.58;46.29;100233.34;5080823;28;45731;-57
2022/08/16 03:58:40;;;;;;;;;31.50;30.50;;;;;22.52;46.40;100233.78;5080857;28;45214;-57
2022/08/16 04:01:06;;;;;;;;;31.75;29.25;;;;;22.39;46.36;100221.28;5081554;28;45311;-57
2022/08/16 04:03:31;;;;;;;;;37.25;32.50;;;;;22.44;46.48;100230.78;5067253;28;45428;-57
2022/08/16 04:05:57;;;;;;;;;34.75;31.00;;;;;22.36;46.13;100232.19;5062051;28;45217;-57
2022/08/16 04:08:22;;;;;;;;;29.00;27.75;;;;;22.31;46.39;100241.50;5061715;28;45728;-57
2022/08/16 04:10:48;;;;;;;;;31.25;30.50;;;;;22.26;46.90;100238.31;5061966;28;45379;-57
2022/08/16 04:13:14;;;;;;;;;32.75;31.75;;;;;22.23;46.36;100239.38;5071214;28;46764;-56
2022/08/16 04:15:39;;;;;;;;;34.00;32.25;;;;;22.19;46.45;100236.06;5060623;28;45391;-56
2022/08/16 04:18:05;;;;;;;;;32.25;31.00;;;;;22.15;46.81;100229.22;5060138;28;45355;-56
2022/08/16 04:20:31;;;;;;;;;35.50;31.00;;;;;22.13;46.45;100224.94;5061723;28;45307;-54
2022/08/16 04:22:57;;;;;;;;;33.50;31.50;;;;;22.11;46.70;100235.72;5043403;28;48381;-54
2022/08/16 04:25:23;;;;;;;;;32.25;31.50;;;;;22.11;46.96;100240.25;5061663;28;45336;-53
2022/08/16 04:27:49;;;;;;;;;33.00;27.75;;;;;22.10;47.01;100236.72;5061328;28;45496;-55
2022/08/16 04:30:17;;;;;;;;;31.00;30.25;;;;;22.09;46.86;100243.03;5061581;28;45478;-54
2022/08/16 04:32:43;;;;;;;;;32.50;30.25;;;;;22.08;47.22;100234.13;5061103;28;45577;-54
2022/08/16 04:35:13;;;;;;;;;35.50;32.25;;;;;22.08;46.81;100238.66;5061063;28;45310;-54
2022/08/16 04:37:39;;;;;;;;;31.25;29.50;;;;;22.06;46.71;100235.22;5061253;28;45309;-53
2022/08/16 04:40:05;;;;;;;;;30.50;30.00;;;;;22.07;47.10;100235.13;5064771;28;45527;-54
2022/08/16 04:42:30;;;;;;;;;34.25;32.00;;;;;22.05;47.05;100229.00;5071058;28;48616;-54
2022/08/16 04:44:57;;;;;;;;;32.75;31.00;;;;;22.08;47.00;100236.81;5061296;28;45211;-54
2022/08/16 04:47:28;;;;;;;;;32.25;29.50;;;;;22.07;47.15;100235.13;5061229;28;45272;-55
2022/08/16 04:49:54;;;;;;;;;31.75;31.25;;;;;22.08;46.56;100244.00;5061221;28;45457;-54
2022/08/16 04:52:20;;;;;;;;;35.50;32.25;;;;;22.08;47.06;100247.50;5076880;28;46142;-55
2022/08/16 04:54:45;;;;;;;;;34.50;31.75;;;;;22.10;47.36;100251.91;5081418;28;45249;-55
2022/08/16 04:57:11;;;;;;;;;36.50;32.75;;;;;22.10;46.92;100241.19;5081057;28;45222;-54
2022/08/16 04:59:36;;;;;;;;;32.75;31.75;;;;;22.10;47.12;100239.41;5080925;27;45354;-54
2022/08/16 05:02:01;;;;;;;;;33.75;30.75;;;;;22.11;47.14;100240.25;5079124;28;45345;-54
2022/08/16 05:04:27;;;;;;;;;29.25;28.00;;;;;22.11;47.41;100232.22;5061071;28;45387;-54
2022/08/16 05:06:52;;;;;;;;;32.25;30.50;;;;;22.11;47.26;100245.59;5060948;28;45414;-52
2022/08/16 05:09:19;;;;;;;;;30.25;29.00;;;;;22.12;47.23;100250.84;5064645;28;45682;-53
2022/08/16 05:11:44;;;;;;;;;38.25;31.75;;;;;22.13;47.38;100259.72;5059421;28;46239;-53
2022/08/16 05:14:10;;;;;;;;;33.75;31.25;;;;;22.11;47.39;100258.97;5064473;28;45572;-54
2022/08/16 05:16:35;;;;;;;;;37.75;31.75;;;;;22.11;47.40;100261.66;5060899;28;45370;-53
2022/08/16 05:19:01;;;;;;;;;33.75;31.50;;;;;22.10;47.55;100259.94;5060643;28;45319;-53
2022/08/16 05:21:34;;;;;;;;;35.25;32.25;;;;;22.10;47.12;100260.81;5059213;28;46175;-57
2022/08/16 05:23:59;;;;;;;;;36.00;32.75;;;;;22.10;47.46;100259.94;5060487;28;45394;-54
2022/08/16 05:26:27;;;;;;;;;37.75;33.25;;;;;22.10;46.98;100279.53;5060499;28;45307;-53
2022/08/16 05:28:53;;;;;;;;;30.50;29.25;;;;;22.10;46.94;100284.88;5059319;28;45340;-53
2022/08/16 05:31:18;;;;;;;;;33.50;31.00;;;;;22.10;47.29;100298.25;5060080;28;45409;-54
2022/08/16 05:33:44;;;;;;;;;34.50;30.50;;;;;22.11;47.21;100301.78;5059234;28;45305;-53
2022/08/16 05:36:09;;;;;;;;;34.25;30.00;;;;;22.07;47.40;100302.00;5060559;28;45249;-54
2022/08/16 05:38:35;;;;;;;;;31.50;27.50;;;;;22.07;47.55;100295.78;5059128;28;46215;-53
2022/08/16 05:41:01;;;;;;;;;28.00;27.00;;;;;22.04;47.79;100279.97;5060133;28;46067;-53
2022/08/16 05:43:27;;;;;;;;;29.00;27.00;;;;;22.01;47.74;100274.81;5060155;28;45240;-54
2022/08/16 05:45:54;;;;;;;;;33.75;28.25;;;;;22.02;48.00;100280.03;5060277;28;45267;-54
2022/08/16 05:48:19;;;;;;;;;27.25;26.75;;;;;22.00;47.79;100276.63;5060306;28;45371;-53
2022/08/16 05:50:44;;;;;;;;;27.50;27.25;;;;;22.01;47.99;100285.50;5065351;28;46679;-53
2022/08/16 05:53:10;;;;;;;;;29.25;27.25;;;;;22.02;47.42;100284.56;5080456;27;45440;-53
2022/08/16 05:55:35;;;;;;;;;28.75;28.00;;;;;22.02;47.88;100288.06;5080465;28;45680;-53
2022/08/16 05:58:00;;;;;;;;;28.25;28.25;;;;;22.03;47.44;100292.47;5080219;28;45306;-51
2022/08/16 06:00:26;;;;;;;;;31.75;30.25;;;;;22.05;47.98;100287.88;5079932;28;45395;-54
2022/08/16 06:02:52;;;;;;;;;28.25;26.25;;;;;22.07;47.24;100293.09;5071034;28;45349;-52
2022/08/16 06:05:17;;;;;;;;;28.75;27.50;;;;;22.11;47.79;100293.75;5060392;28;45304;-53
2022/08/16 06:07:43;;;;;;;;;27.25;24.75;;;;;22.09;47.47;100285.84;5060184;28;45293;-52
2022/08/16 06:10:09;;;;;;;;;26.75;24.75;;;;;22.13;47.74;100303.38;5059743;28;46244;-53
2022/08/16 06:12:35;;;;;;;;;25.25;25.25;;;;;22.15;47.83;100317.53;5059664;28;45182;-51
2022/08/16 06:15:04;;;;;;;;;29.75;28.50;;;;;22.17;47.77;100317.41;5058604;28;45539;-54
2022/08/16 06:17:29;;;;;;;;;27.50;26.50;;;;;22.15;47.74;100316.66;5059698;28;45296;-53
2022/08/16 06:19:55;;;;;;;;;30.50;27.00;;;;;22.14;47.83;100323.81;5059452;28;46104;-53
2022/08/16 06:22:20;;;;;;;;;24.50;23.50;;;;;22.16;47.49;100329.06;5059790;28;45394;-53
2022/08/16 06:24:46;;;;;;;;;28.75;28.25;;;;;22.14;47.84;100323.81;5063381;28;45272;-54
2022/08/16 06:27:11;;;;;;;;;31.75;30.00;;;;;22.13;48.07;100323.94;5063211;28;45250;-54
2022/08/16 06:29:37;;;;;;;;;35.25;26.25;;;;;22.13;48.07;100315.91;5063055;28;45417;-53
2022/08/16 06:32:03;;;;;;;;;29.25;27.50;;;;;22.16;48.37;100318.38;5063247;28;45284;-54
2022/08/16 06:34:28;;;;;;;;;26.00;26.00;;;;;22.19;48.07;100318.16;5063097;28;45382;-53
2022/08/16 06:36:54;;;;;;;;;27.25;26.00;;;;;22.16;48.28;100310.34;5063275;28;45292;-52
2022/08/16 06:39:19;;;;;;;;;27.75;25.00;;;;;22.21;48.15;100305.53;5062986;28;45989;-54
2022/08/16 06:41:45;;;;;;;;;25.25;25.25;;;;;22.23;48.17;100306.28;5063094;28;45228;-54
2022/08/16 06:44:10;;;;;;;;;25.75;24.75;;;;;22.23;47.95;100304.44;5063120;28;45581;-51
2022/08/16 06:46:37;;;;;;;;;28.75;25.75;;;;;22.24;48.19;100308.00;5063046;28;45400;-52
2022/08/16 06:49:10;;;;;;;;;23.50;23.50;;;;;22.28;47.74;100317.50;5062903;28;45385;-54
2022/08/16 06:51:37;;;;;;;;;28.50;25.75;;;;;22.29;48.10;100315.69;5072377;28;45372;-54
2022/08/16 06:54:04;;;;;;;;;29.75;27.00;;;;;22.33;47.83;100314.53;5081870;28;45198;-53
2022/08/16 06:56:29;;;;;;;;;26.00;23.50;;;;;22.35;47.82;100321.47;5081287;28;45505;-54
2022/08/16 06:58:55;;;;;;;;;23.25;22.25;;;;;22.38;47.83;100323.97;5082239;28;45350;-51
2022/08/16 07:01:21;;;;;;;;;26.75;26.00;;;;;22.40;47.77;100318.50;5082774;28;45350;-53
2022/08/16 07:03:47;;;;;;;;;25.50;25.50;;;;;22.43;47.98;100314.72;5066789;27;45263;-54
2022/08/16 07:06:12;;;;;;;;;230.50;210.75;;;;;22.40;47.81;100316.69;5067315;28;45272;-54
2022/08/16 07:08:37;;;;;;;;;23.25;22.75;;;;;22.48;47.59;100321.50;5062571;28;46048;-54
2022/08/16 07:11:03;;;;;;;;;24.50;23.50;;;;;22.50;47.94;100324.06;5062223;28;45349;-54
2022/08/16 07:13:29;;;;;;;;;23.50;23.00;;;;;22.50;47.86;100316.91;5062630;28;45255;-54
2022/08/16 07:15:58;;;;;;;;;36.25;32.00;;;;;22.53;47.69;100316.66;5062317;28;45239;-51
2022/08/16 07:18:23;;;;;;;;;27.50;24.75;;;;;22.55;47.91;100317.41;5062304;28;46180;-54
2022/08/16 07:20:50;;;;;;;;;26.00;24.00;;;;;22.56;47.89;100311.09;5062395;28;45429;-54
2022/08/16 07:23:16;;;;;;;;;25.25;24.75;;;;;22.60;47.67;100313.56;5062489;28;45529;-53
2022/08/16 07:25:42;;;;;;;;;24.75;23.75;;;;;22.61;47.81;100321.47;5062120;28;45367;-51
2022/08/16 07:28:09;;;;;;;;;26.25;22.00;;;;;22.64;48.13;100334.66;5060665;28;47437;-54
2022/08/16 07:30:35;;;;;;;;;23.75;23.50;;;;;22.67;47.54;100339.78;5062358;28;45224;-53
2022/08/16 07:33:02;;;;;;;;;29.25;25.00;;;;;22.70;47.93;100334.22;5062226;28;45362;-52
2022/08/16 07:35:27;;;;;;;;;22.25;21.25;;;;;22.71;47.69;100341.25;5059689;28;45563;-53
2022/08/16 07:37:53;;;;;;;;;25.00;23.00;;;;;22.72;47.63;100336.78;5062101;28;45229;-53
2022/08/16 07:40:18;;;;;;;;;22.25;21.25;;;;;22.77;47.67;100344.50;5062344;28;45362;-54
2022/08/16 07:42:44;;;;;;;;;25.00;23.75;;;;;22.78;47.90;100339.00;5061998;28;45510;-54
2022/08/16 07:45:10;;;;;;;;;27.00;25.25;;;;;22.81;47.72;100348.66;5062104;28;45400;-50
2022/08/16 07:47:35;;;;;;;;;25.00;24.00;;;;;22.82;47.52;100340.50;5061759;28;45703;-54
2022/08/16 07:50:00;;;;;;;;;22.25;21.50;;;;;22.84;47.77;100345.75;5061916;28;45349;-54
2022/08/16 07:52:26;;;;;;;;;21.25;21.25;;;;;22.86;48.02;100338.47;5077597;28;45279;-54
2022/08/16 07:54:52;;;;;;;;;23.50;21.50;;;;;22.87;47.82;100334.81;5082435;28;45369;-54
2022/08/16 07:57:17;;;;;;;;;25.50;22.50;;;;;22.92;47.66;100338.00;5081862;28;46297;-54
2022/08/16 07:59:43;;;;;;;;;22.25;20.75;;;;;22.93;47.43;100341.53;5082223;28;45297;-53
2022/08/16 08:02:10;;;;;;;;;31.00;26.25;;;;;22.97;48.07;100345.72;5072347;28;45456;-54
2022/08/16 08:04:35;;;;;;;;;29.50;26.75;;;;;22.99;47.85;100344.66;5061904;28;45245;-54
2022/08/16 08:07:01;;;;;;;;;25.25;22.75;;;;;23.03;47.70;100334.53;5074142;28;45331;-52
2022/08/16 08:09:26;;;;;;;;;27.25;23.75;;;;;23.07;47.84;100340.53;5061903;28;45186;-53
2022/08/16 08:11:52;;;;;;;;;25.75;23.75;;;;;23.10;47.63;100334.97;5061690;28;45319;-54
2022/08/16 08:14:17;;;;;;;;;29.50;28.25;;;;;23.13;47.65;100329.34;5061779;28;45446;-52
2022/08/16 08:16:43;;;;;;;;;37.00;31.75;;;;;23.15;47.82;100333.66;5060038;28;47352;-54
2022/08/16 08:19:11;;;;;;;;;38.50;30.25;;;;;23.20;47.74;100331.50;5061472;28;45288;-53
2022/08/16 08:21:39;;;;;;;;;32.00;29.00;;;;;23.24;47.47;100334.81;5061639;28;45367;-54
2022/08/16 08:24:06;;;;;;;;;32.75;29.50;;;;;23.28;47.27;100333.63;5061618;28;45248;-54
2022/08/16 08:26:32;;;;;;;;;26.75;25.25;;;;;23.34;47.44;100340.34;5061159;28;47089;-54
2022/08/16 08:28:57;;;;;;;;;27.25;25.00;;;;;23.38;47.59;100333.78;5061642;28;45232;-54
2022/08/16 08:31:22;;;;;;;;;25.75;24.25;;;;;23.41;47.53;100355.03;5061300;28;45185;-54
2022/08/16 08:33:48;;;;;;;;;24.25;22.50;;;;;23.42;47.32;100346.03;5061653;28;45403;-55
2022/08/16 08:36:21;;;;;;;;;23.50;22.75;;;;;23.46;47.49;100350.16;5060998;28;51612;-55
2022/08/16 08:38:47;;;;;;;;;26.00;21.50;;;;;23.53;47.50;100353.25;5061203;28;45291;-54
2022/08/16 08:41:14;;;;;;;;;23.00;20.75;;;;;23.57;47.54;100357.44;5074629;28;45265;-55
2022/08/16 08:43:40;;;;;;;;;24.25;19.75;;;;;23.63;47.39;100353.41;5060096;28;45558;-53
2022/08/16 08:46:05;;;;;;;;;23.00;22.00;;;;;23.69;47.50;100358.31;5060737;28;46078;-54
2022/08/16 08:48:31;;;;;;;;;25.25;22.50;;;;;23.77;47.12;100360.41;5061191;28;45299;-54
2022/08/16 08:50:56;;;;;;;;;29.25;26.00;;;;;23.80;47.21;100350.31;5060949;28;45426;-54
2022/08/16 08:53:23;;;;;;;;;23.25;22.50;;;;;23.90;47.28;100352.28;5061267;28;45372;-54
2022/08/16 08:55:50;;;;;;;;;26.00;25.00;;;;;23.96;47.11;100363.44;5060900;28;45934;-54
2022/08/16 08:58:15;;;;;;;;;22.50;21.00;;;;;24.05;47.35;100363.69;5060651;28;45240;-55
2022/08/16 09:00:41;;;;;;;;;19.50;19.50;;;;;24.12;46.97;100354.19;5060838;28;45168;-55
2022/08/16 09:03:06;;;;;;;;;22.50;21.75;;;;;24.21;46.98;100353.47;5068416;28;45253;-55
2022/08/16 09:05:32;;;;;;;;;22.75;20.00;;;;;24.28;47.11;100357.41;5060797;28;45225;-55
2022/08/16 09:07:57;;;;;;;;;25.50;22.00;;;;;24.36;46.79;100356.78;5067467;28;45260;-54
2022/08/16 09:10:22;;;;;;;;;21.50;19.50;;;;;24.43;47.08;100358.03;5060887;28;45284;-55
2022/08/16 09:12:48;;;;;;;;;22.75;19.75;;;;;24.48;46.61;100365.72;5060586;28;45407;-53
2022/08/16 09:15:15;;;;;;;;;20.25;20.25;;;;;24.55;46.45;100366.94;5060575;28;46092;-56
2022/08/16 09:17:41;;;;;;;;;23.50;20.00;;;;;24.60;46.51;100371.94;5060660;28;45307;-54
2022/08/16 09:20:09;;;;;;;;;21.00;20.25;;;;;24.62;46.87;100376.22;5060660;28;45334;-55
2022/08/16 09:22:35;;;;;;;;;19.00;19.00;;;;;24.65;46.43;100373.34;5060525;28;45466;-54
2022/08/16 09:25:00;;;;;;;;;22.00;21.00;;;;;24.70;46.67;100377.47;5060290;28;45966;-54
2022/08/16 09:27:27;;;;;;;;;24.25;23.75;;;;;24.67;46.16;100367.84;5060399;28;45273;-55
2022/08/16 09:29:52;;;;;;;;;21.75;20.00;;;;;24.80;46.65;100383.81;5060655;28;45323;-55
2022/08/16 09:32:18;;;;;;;;;18.75;18.75;;;;;24.85;46.03;100384.31;5060229;28;45497;-55
2022/08/16 09:34:44;;;;;;;;;19.25;18.25;;;;;24.90;46.00;100382.09;5060262;28;46329;-55
2022/08/16 09:37:10;;;;;;;;;22.75;18.75;;;;;24.95;46.28;100376.38;5060505;28;45358;-54
2022/08/16 09:39:35;;;;;;;;;16.00;14.50;;;;;25.06;46.31;100380.88;5060350;28;45376;-55
2022/08/16 09:42:01;;;;;;;;;16.25;16.25;;;;;25.18;46.06;100379.84;5060228;28;45391;-55
2022/08/16 09:44:27;;;;;;;;;16.00;15.75;;;;;25.27;46.33;100379.13;5060144;28;47112;-56
2022/08/16 09:46:54;;;;;;;;;19.50;18.00;;;;;25.37;46.35;100378.38;5060226;28;45307;-55
2022/08/16 09:49:20;;;;;;;;;19.50;19.00;;;;;25.46;45.90;100380.34;5060312;28;46231;-54
2022/08/16 09:51:47;;;;;;;;;21.50;18.50;;;;;25.56;46.35;100375.91;5071081;28;45560;-55
2022/08/16 09:54:13;;;;;;;;;20.25;20.00;;;;;25.64;46.19;100370.72;5080383;27;47037;-55
2022/08/16 09:56:39;;;;;;;;;17.25;15.25;;;;;25.71;45.86;100368.38;5079756;28;45343;-54
2022/08/16 09:59:07;;;;;;;;;17.50;17.25;;;;;25.80;45.64;100374.81;5079900;28;45437;-54
2022/08/16 10:01:35;;;;;;;;;11.50;10.00;;;;;25.84;45.59;100386.19;5078815;28;45485;-55
2022/08/16 10:04:00;;;;;;;;;13.50;13.00;;;;;25.85;45.65;100379.78;5061372;27;45479;-55
2022/08/16 10:06:26;;;;;;;;;17.75;16.25;;;;;25.92;45.32;100384.56;5059985;28;45212;-53
2022/08/16 10:08:52;;;;;;;;;14.75;14.75;;;;;26.02;45.08;100378.38;5073972;28;45314;-55
2022/08/16 10:14:02;;;;;;;;;16.00;16.00;;;;;26.21;44.76;100383.06;5059934;28;45729;-55
2022/08/16 10:16:28;;;;;;;;;16.00;15.25;;;;;26.28;45.38;100382.41;5059609;28;45243;-55
2022/08/16 10:18:53;;;;;;;;;20.50;16.50;;;;;26.34;45.31;100391.81;5058728;28;45325;-55
2022/08/16 10:21:19;;;;;;;;;15.50;13.75;;;;;26.42;45.30;100388.44;5059719;28;45235;-55
2022/08/16 10:23:45;;;;;;;;;17.75;16.00;;;;;26.47;44.91;100394.28;5059862;28;45351;-54
2022/08/16 10:26:11;;;;;;;;;22.00;17.25;;;;;26.52;44.32;100386.66;5059543;28;45569;-55
2022/08/16 10:28:37;;;;;;;;;16.25;15.50;;;;;26.55;44.61;100390.91;5060078;28;45315;-55
2022/08/16 10:31:04;;;;;;;;;15.25;15.25;;;;;26.58;44.51;100394.19;5059436;28;45434;-55
2022/08/16 10:33:32;;;;;;;;;17.25;15.25;;;;;26.60;44.18;100394.06;5058355;28;47960;-55
2022/08/16 10:35:58;;;;;;;;;21.00;19.50;;;;;26.61;44.14;100383.13;5059454;28;45244;-55
2022/08/16 10:38:23;;;;;;;;;20.00;16.75;;;;;26.62;44.67;100389.38;5059459;28;45275;-55
2022/08/16 10:40:49;;;;;;;;;17.25;16.75;;;;;26.65;44.12;100380.19;5059284;28;45402;-56
2022/08/16 10:43:14;;;;;;;;;19.75;16.25;;;;;26.68;44.62;100378.06;5063034;28;47283;-55
2022/08/16 10:45:40;;;;;;;;;16.50;16.25;;;;;26.73;44.07;100380.38;5059385;28;45331;-55
2022/08/16 10:48:08;;;;;;;;;21.00;18.50;;;;;26.79;44.18;100377.13;5062636;28;45389;-56
2022/08/16 10:50:35;;;;;;;;;16.00;15.00;;;;;26.83;43.84;100373.22;5060278;28;45534;-55
2022/08/16 10:53:05;;;;;;;;;16.50;16.50;;;;;26.93;44.50;100384.03;5070290;28;47519;-55
2022/08/16 10:55:35;;;;;;;;;19.00;17.25;;;;;27.00;44.32;100379.78;5074672;28;45500;-56
2022/08/16 10:58:02;;;;;;;;;18.25;18.25;;;;;27.05;44.29;100374.81;5079326;28;45423;-55
2022/08/16 11:00:27;;;;;;;;;15.50;14.75;;;;;27.06;43.95;100379.22;5079440;28;45510;-55
2022/08/16 11:02:52;;;;;;;;;16.50;16.00;;;;;27.11;43.62;100386.91;5069966;28;45339;-56
2022/08/16 11:05:18;;;;;;;;;15.25;14.25;;;;;27.12;43.64;100393.13;5058857;28;50673;-56
2022/08/16 11:07:49;;;;;;;;;17.75;17.00;;;;;27.11;44.00;100389.59;5059494;28;45273;-56